Terminal Aerodrome Forecast
Issued by NWS

Home | Current Version | Previous Version | Text Only | Print | Product List | Glossary On
Versions: 1 2 3 4 5 6 7 8 9 10 11 12 13
000
FTUS42 TJSJ 041100
TAFJBQ
TAF
TJBQ 041121Z 0412/0512 09011KT P6SM VCSH SCT025 SCT040 BKN070
      TEMPO 0412/0414 VRB18G25KT -SHRA BKN030
     FM041400 09014G20KT P6SM SCT025 SCT070
     FM041800 08018G28KT P6SM FEW030 SCT050 SCT070
     FM042330 09012KT P6SM SCT035 SCT080
      AMD NOT SKED=

USA.gov is the U.S. government's official web portal to all federal, state and local government web resources and services.